createdAt,value
2022-10-01T00:01:00.323Z,9.32
2022-10-01T00:03:28.735Z,9.38
2022-10-01T00:06:00.473Z,9.39
2022-10-01T00:08:28.359Z,9.37
2022-10-01T00:10:55.031Z,9.38
2022-10-01T00:13:22.585Z,9.54
2022-10-01T00:15:49.249Z,9.58
2022-10-01T00:18:15.858Z,9.60
2022-10-01T00:20:43.577Z,9.57
2022-10-01T00:23:11.930Z,9.65
2022-10-01T00:25:39.736Z,9.61
2022-10-01T00:28:07.240Z,9.61
2022-10-01T00:30:38.391Z,9.62
2022-10-01T00:33:06.809Z,9.61
2022-10-01T00:35:33.477Z,9.63
2022-10-01T00:38:00.080Z,9.62
2022-10-01T00:40:26.669Z,9.63
2022-10-01T00:42:53.215Z,9.62
2022-10-01T00:45:19.938Z,9.63
2022-10-01T00:47:54.113Z,9.62
2022-10-01T00:50:33.629Z,9.61
2022-10-01T00:53:06.687Z,9.59
2022-10-01T00:55:37.978Z,9.61
2022-10-01T00:58:05.478Z,9.59
2022-10-01T01:00:32.580Z,9.57
2022-10-01T01:02:59.256Z,9.60
2022-10-01T01:05:25.914Z,9.66
2022-10-01T01:07:53.645Z,9.67
2022-10-01T01:10:30.722Z,9.69
2022-10-01T01:13:09.241Z,9.70
2022-10-01T01:15:46.985Z,9.70
2022-10-01T01:18:28.339Z,9.73
2022-10-01T01:21:17.501Z,9.72
2022-10-01T01:24:02.576Z,9.72
2022-10-01T01:26:59.588Z,9.77
2022-10-01T01:29:34.829Z,9.80
2022-10-01T01:32:15.016Z,9.80
2022-10-01T01:34:45.461Z,9.79
2022-10-01T01:37:15.660Z,9.77
2022-10-01T01:39:46.271Z,9.75
2022-10-01T01:42:29.486Z,9.79
2022-10-01T01:45:00.215Z,9.77
2022-10-01T01:47:30.496Z,9.74
2022-10-01T01:49:58.513Z,9.73
2022-10-01T01:52:25.271Z,9.68
2022-10-01T01:54:51.893Z,9.62
2022-10-01T01:57:20.243Z,9.59
2022-10-01T01:59:47.252Z,9.56
2022-10-01T02:02:19.140Z,9.55
2022-10-01T02:04:54.940Z,9.56
2022-10-01T02:08:01.775Z,9.56
2022-10-01T02:10:57.785Z,9.55
2022-10-01T02:13:38.933Z,9.60
2022-10-01T02:16:35.110Z,9.56
2022-10-01T02:19:23.730Z,9.51
2022-10-01T02:22:04.817Z,9.44
2022-10-01T02:24:40.631Z,9.31
2022-10-01T02:27:15.503Z,9.24
2022-10-01T02:29:45.163Z,9.16
2022-10-01T02:32:13.906Z,9.10
2022-10-01T02:34:41.901Z,9.05
2022-10-01T02:37:10.319Z,9.02
2022-10-01T02:39:41.495Z,9.02
2022-10-01T02:42:12.975Z,8.99
2022-10-01T02:44:45.009Z,8.99
2022-10-01T02:47:26.457Z,8.99
2022-10-01T02:49:53.767Z,8.97
2022-10-01T02:52:25.812Z,8.96
2022-10-01T02:54:59.404Z,8.93
2022-10-01T02:57:29.720Z,8.90
2022-10-01T03:00:02.216Z,8.82
2022-10-01T03:02:31.423Z,8.82
2022-10-01T03:04:58.746Z,8.76
2022-10-01T03:07:27.269Z,8.79
2022-10-01T03:09:54.216Z,8.84
2022-10-01T03:12:21.073Z,8.80
2022-10-01T03:14:47.769Z,8.74
2022-10-01T03:17:15.433Z,8.73
2022-10-01T03:19:42.902Z,8.72
2022-10-01T03:22:13.081Z,8.70
2022-10-01T03:24:39.683Z,8.67
2022-10-01T03:27:06.627Z,8.68
2022-10-01T03:29:33.289Z,8.68
2022-10-01T03:31:59.981Z,8.66
2022-10-01T03:34:26.677Z,8.65
2022-10-01T03:36:53.339Z,8.65
2022-10-01T03:39:20.341Z,8.65
2022-10-01T03:41:47.031Z,8.67
2022-10-01T03:44:13.613Z,8.67
2022-10-01T03:46:40.219Z,8.70
2022-10-01T03:49:06.914Z,8.68
2022-10-01T03:51:33.883Z,8.69
2022-10-01T03:54:00.718Z,8.67
2022-10-01T03:56:27.441Z,8.67
2022-10-01T03:58:54.434Z,8.65
2022-10-01T04:01:21.800Z,8.65
2022-10-01T04:03:50.221Z,8.61
2022-10-01T04:06:17.011Z,8.61
2022-10-01T04:08:43.852Z,8.65
2022-10-01T04:11:10.801Z,8.66
2022-10-01T04:13:37.540Z,8.66
2022-10-01T04:16:05.418Z,8.64
2022-10-01T04:18:32.482Z,8.61
2022-10-01T04:20:59.126Z,8.58
2022-10-01T04:23:26.573Z,8.56
2022-10-01T04:25:53.216Z,8.50
2022-10-01T04:28:20.235Z,8.45
2022-10-01T04:30:46.997Z,8.43
2022-10-01T04:33:16.469Z,8.49
2022-10-01T04:35:44.099Z,8.43
2022-10-01T04:38:16.467Z,8.44
2022-10-01T04:40:43.359Z,8.46
2022-10-01T04:43:11.788Z,8.50
2022-10-01T04:45:39.262Z,8.52
2022-10-01T04:48:05.835Z,8.53
2022-10-01T04:50:32.692Z,8.48
2022-10-01T04:52:59.428Z,8.46
2022-10-01T04:55:26.205Z,8.45
2022-10-01T04:57:52.790Z,8.47
2022-10-01T05:00:22.234Z,8.45
2022-10-01T05:02:50.170Z,8.42
2022-10-01T05:05:18.315Z,8.38
2022-10-01T05:07:45.394Z,8.39
2022-10-01T05:10:15.240Z,8.42
2022-10-01T05:12:42.497Z,8.42
2022-10-01T05:15:09.948Z,8.44
2022-10-01T05:17:36.671Z,8.43
2022-10-01T05:20:05.750Z,8.50
2022-10-01T05:22:32.586Z,8.52
2022-10-01T05:25:00.332Z,8.59
2022-10-01T05:27:28.117Z,8.63
2022-10-01T05:29:54.875Z,8.64
2022-10-01T05:32:21.462Z,8.65
2022-10-01T05:34:53.333Z,8.71
2022-10-01T05:37:20.423Z,8.77
2022-10-01T05:39:47.191Z,8.80
2022-10-01T05:42:13.775Z,8.86
2022-10-01T05:44:46.014Z,8.91
2022-10-01T05:47:14.061Z,8.92
2022-10-01T05:49:44.404Z,8.93
2022-10-01T05:52:11.996Z,8.99
2022-10-01T05:54:38.911Z,9.05
2022-10-01T05:57:07.887Z,9.06
2022-10-01T05:59:35.513Z,9.14
2022-10-01T06:02:02.735Z,9.15
2022-10-01T06:04:29.361Z,9.18
2022-10-01T06:06:56.411Z,9.15
2022-10-01T06:09:23.075Z,9.18
2022-10-01T06:11:49.747Z,9.12
2022-10-01T06:14:16.897Z,9.07
2022-10-01T06:16:43.595Z,9.02
2022-10-01T06:19:10.303Z,8.98
2022-10-01T06:21:37.359Z,9.01
2022-10-01T06:24:04.442Z,9.04
2022-10-01T06:26:31.270Z,9.05
2022-10-01T06:28:57.975Z,9.03
2022-10-01T06:31:25.121Z,9.07
2022-10-01T06:33:51.871Z,9.14
2022-10-01T06:36:18.498Z,9.20
2022-10-01T06:38:49.113Z,9.22
2022-10-01T06:41:15.740Z,9.24
2022-10-01T06:43:42.375Z,9.29
2022-10-01T06:46:09.242Z,9.30
2022-10-01T06:48:36.700Z,9.34
2022-10-01T06:51:03.983Z,9.37
2022-10-01T06:53:31.863Z,9.36
2022-10-01T06:56:04.472Z,9.34
2022-10-01T06:58:31.182Z,9.38
2022-10-01T07:01:00.204Z,9.39
2022-10-01T07:03:27.940Z,9.42
2022-10-01T07:05:54.528Z,9.44
2022-10-01T07:08:22.439Z,9.49
2022-10-01T07:10:49.068Z,9.43
2022-10-01T07:13:18.365Z,9.52
2022-10-01T07:15:46.096Z,9.59
2022-10-01T07:18:13.385Z,9.65
2022-10-01T07:20:40.784Z,9.66
2022-10-01T07:23:10.585Z,9.68
2022-10-01T07:25:38.920Z,9.62
2022-10-01T07:28:07.848Z,9.74
2022-10-01T07:30:35.021Z,9.73
2022-10-01T07:33:01.615Z,9.73
2022-10-01T07:35:29.606Z,9.74
2022-10-01T07:37:56.178Z,9.76
2022-10-01T07:40:22.811Z,9.86
2022-10-01T07:42:55.951Z,9.86
2022-10-01T07:45:23.479Z,9.93
2022-10-01T07:47:59.027Z,10.04
2022-10-01T07:50:26.870Z,10.05
2022-10-01T07:52:56.176Z,10.17
2022-10-01T07:55:26.382Z,10.30
2022-10-01T07:57:55.143Z,10.42
2022-10-01T08:00:23.398Z,10.49
2022-10-01T08:02:53.499Z,10.41
2022-10-01T08:05:23.168Z,10.39
2022-10-01T08:07:50.461Z,10.31
2022-10-01T08:10:19.299Z,10.30
2022-10-01T08:12:46.167Z,10.29
2022-10-01T08:15:17.433Z,10.29
2022-10-01T08:17:45.022Z,10.38
2022-10-01T08:20:13.963Z,10.44
2022-10-01T08:22:42.368Z,10.43
2022-10-01T08:25:09.570Z,10.59
2022-10-01T08:27:36.530Z,10.62
2022-10-01T08:30:03.787Z,10.62
2022-10-01T08:32:31.249Z,10.66
2022-10-01T08:34:59.952Z,10.57
2022-10-01T08:37:28.486Z,10.57
2022-10-01T08:39:56.396Z,10.64
2022-10-01T08:42:25.927Z,10.74
2022-10-01T08:44:53.280Z,10.78
2022-10-01T08:47:31.688Z,10.78
2022-10-01T08:50:02.835Z,10.81
2022-10-01T08:52:38.354Z,10.86
2022-10-01T08:55:15.914Z,10.89
2022-10-01T08:57:52.027Z,10.95
2022-10-01T09:00:19.437Z,11.08
2022-10-01T09:02:47.778Z,11.06
2022-10-01T09:05:17.210Z,11.09
2022-10-01T09:08:05.161Z,11.01
2022-10-01T09:10:38.347Z,11.05
2022-10-01T09:13:36.012Z,11.02
2022-10-01T09:16:32.231Z,10.99
2022-10-01T09:19:17.460Z,11.15
2022-10-01T09:21:51.313Z,11.33
2022-10-01T09:24:42.704Z,11.61
2022-10-01T09:27:16.837Z,11.60
2022-10-01T09:29:49.421Z,11.72
2022-10-01T09:32:20.770Z,11.70
2022-10-01T09:34:48.245Z,11.69
2022-10-01T09:37:37.853Z,11.69
2022-10-01T09:40:17.763Z,11.80
2022-10-01T09:42:44.445Z,11.70
2022-10-01T09:45:13.956Z,11.71
2022-10-01T09:47:43.640Z,11.65
2022-10-01T09:50:18.238Z,11.74
2022-10-01T09:52:49.144Z,11.92
2022-10-01T09:55:18.521Z,11.94
2022-10-01T09:57:53.194Z,11.87
2022-10-01T10:00:22.787Z,11.92
2022-10-01T10:02:51.921Z,11.93
2022-10-01T10:05:27.343Z,11.98
2022-10-01T10:08:05.582Z,12.30
2022-10-01T10:10:35.781Z,12.48
2022-10-01T10:13:11.395Z,12.37
2022-10-01T10:15:42.566Z,12.43
2022-10-01T10:18:21.540Z,12.46
2022-10-01T10:20:54.014Z,12.42
2022-10-01T10:23:25.114Z,12.59
2022-10-01T10:25:57.269Z,12.77
2022-10-01T10:28:24.421Z,12.94
2022-10-01T10:30:54.211Z,13.67
2022-10-01T10:33:22.695Z,13.34
2022-10-01T10:36:01.998Z,13.73
2022-10-01T10:38:33.653Z,14.14
2022-10-01T10:41:01.462Z,14.40
2022-10-01T10:43:34.286Z,14.51
2022-10-01T10:46:01.715Z,13.99
2022-10-01T10:48:35.729Z,14.25
2022-10-01T10:51:05.582Z,14.13
2022-10-01T10:53:46.107Z,14.59
2022-10-01T10:56:24.716Z,14.36
2022-10-01T10:58:52.324Z,14.74
2022-10-01T11:01:28.484Z,14.66
2022-10-01T11:04:01.017Z,14.45
2022-10-01T11:06:28.068Z,14.88
2022-10-01T11:09:00.699Z,14.89
2022-10-01T11:11:36.387Z,15.10
2022-10-01T11:14:03.255Z,14.80
2022-10-01T11:16:38.859Z,14.80
2022-10-01T11:19:30.131Z,14.66
2022-10-01T11:22:02.493Z,14.70
2022-10-01T11:24:46.019Z,15.19
2022-10-01T11:27:12.705Z,14.91
2022-10-01T11:29:39.228Z,15.07
2022-10-01T11:32:31.184Z,15.27
2022-10-01T11:35:00.719Z,15.25
2022-10-01T11:37:56.239Z,15.03
2022-10-01T11:40:35.919Z,15.26
2022-10-01T11:43:11.754Z,15.90
2022-10-01T11:45:45.459Z,15.89
2022-10-01T11:48:25.870Z,15.47
2022-10-01T11:50:59.083Z,15.38
2022-10-01T11:53:33.375Z,15.26
2022-10-01T11:56:24.898Z,15.26
2022-10-01T11:59:02.348Z,15.27
2022-10-01T12:02:08.243Z,15.57
2022-10-01T12:04:39.628Z,15.62
2022-10-01T12:07:21.640Z,15.65
2022-10-01T12:10:00.978Z,15.96
2022-10-01T12:12:40.447Z,15.99
2022-10-01T12:15:17.760Z,16.04
2022-10-01T12:17:49.743Z,15.82
2022-10-01T12:20:38.220Z,15.64
2022-10-01T12:23:07.171Z,15.42
2022-10-01T12:25:49.045Z,15.79
2022-10-01T12:28:25.998Z,16.17
2022-10-01T12:31:21.505Z,16.24
2022-10-01T12:34:12.652Z,16.02
2022-10-01T12:37:04.587Z,15.78
2022-10-01T12:39:38.970Z,15.29
2022-10-01T12:42:31.310Z,15.79
2022-10-01T12:45:21.831Z,15.91
2022-10-01T12:48:16.403Z,16.09
2022-10-01T12:51:07.529Z,16.08
2022-10-01T12:53:41.270Z,16.23
2022-10-01T12:56:21.633Z,15.98
2022-10-01T12:59:05.485Z,15.53
2022-10-01T13:01:59.761Z,15.18
2022-10-01T13:04:34.101Z,14.87
2022-10-01T13:07:09.506Z,14.76
2022-10-01T13:09:50.580Z,14.87
2022-10-01T13:12:43.661Z,14.82
2022-10-01T13:15:35.101Z,15.58
2022-10-01T13:18:29.694Z,15.71
2022-10-01T13:21:07.067Z,15.68
2022-10-01T13:23:49.870Z,15.49
2022-10-01T13:26:53.941Z,15.04
2022-10-01T13:29:54.732Z,14.90
2022-10-01T13:32:25.871Z,14.70
2022-10-01T13:34:53.122Z,14.72
2022-10-01T13:37:37.273Z,14.89
2022-10-01T13:40:19.443Z,14.89
2022-10-01T13:42:47.953Z,15.06
2022-10-01T13:45:22.469Z,15.43
2022-10-01T13:47:49.525Z,15.54
2022-10-01T13:50:25.319Z,15.42
2022-10-01T13:53:03.928Z,15.25
2022-10-01T13:55:32.036Z,15.27
2022-10-01T13:58:30.623Z,15.23
2022-10-01T14:01:01.834Z,15.17
2022-10-01T14:03:53.479Z,15.15
2022-10-01T14:06:26.068Z,15.14
2022-10-01T14:09:00.564Z,15.29
2022-10-01T14:11:49.457Z,15.28
2022-10-01T14:14:44.350Z,15.27
2022-10-01T14:17:12.428Z,15.42
2022-10-01T14:19:47.003Z,15.52
2022-10-01T14:22:38.671Z,15.43
2022-10-01T14:25:13.872Z,15.33
2022-10-01T14:27:58.998Z,15.15
2022-10-01T14:30:36.799Z,14.93
2022-10-01T14:33:21.865Z,14.93
2022-10-01T14:36:02.854Z,15.01
2022-10-01T14:38:30.796Z,14.98
2022-10-01T14:40:57.408Z,15.02
2022-10-01T14:43:28.249Z,14.94
2022-10-01T14:45:56.968Z,14.97
2022-10-01T14:48:25.942Z,14.95
2022-10-01T14:50:55.924Z,14.95
2022-10-01T14:53:26.564Z,14.95
2022-10-01T14:55:56.434Z,15.00
2022-10-01T14:58:37.323Z,15.04
2022-10-01T15:01:05.710Z,14.99
2022-10-01T15:03:39.849Z,14.93
2022-10-01T15:06:14.596Z,14.88
2022-10-01T15:08:49.069Z,14.80
2022-10-01T15:11:21.220Z,14.77
2022-10-01T15:13:50.932Z,14.83
2022-10-01T15:16:21.124Z,14.84
2022-10-01T15:18:54.947Z,14.91
2022-10-01T15:21:30.939Z,14.81
2022-10-01T15:23:58.155Z,14.80
2022-10-01T15:26:29.862Z,14.76
2022-10-01T15:29:05.797Z,14.64
2022-10-01T15:31:33.786Z,14.60
2022-10-01T15:34:04.000Z,14.55
2022-10-01T15:36:31.279Z,14.55
2022-10-01T15:38:58.918Z,14.50
2022-10-01T15:41:32.505Z,14.49
2022-10-01T15:44:03.491Z,14.46
2022-10-01T15:46:33.316Z,14.41
2022-10-01T15:49:25.993Z,14.37
2022-10-01T15:52:17.967Z,14.31
2022-10-01T15:54:45.692Z,14.24
2022-10-01T15:57:20.855Z,14.20
2022-10-01T15:59:50.249Z,14.12
2022-10-01T16:02:24.473Z,14.06
2022-10-01T16:04:56.644Z,13.94
2022-10-01T16:07:29.840Z,13.92
2022-10-01T16:09:59.135Z,13.86
2022-10-01T16:12:29.528Z,13.84
2022-10-01T16:14:57.680Z,13.77
2022-10-01T16:17:53.585Z,13.70
2022-10-01T16:20:36.873Z,13.69
2022-10-01T16:23:31.723Z,13.63
2022-10-01T16:25:58.350Z,13.55
2022-10-01T16:28:31.265Z,13.49
2022-10-01T16:30:57.899Z,13.44
2022-10-01T16:33:26.652Z,13.41
2022-10-01T16:36:07.381Z,13.40
2022-10-01T16:38:33.968Z,13.35
2022-10-01T16:41:01.593Z,13.31
2022-10-01T16:43:28.247Z,13.25
2022-10-01T16:45:55.381Z,13.19
2022-10-01T16:48:25.190Z,13.16
2022-10-01T16:50:53.788Z,13.09
2022-10-01T16:53:20.941Z,13.04
2022-10-01T16:55:47.600Z,12.99
2022-10-01T16:58:14.536Z,12.95
2022-10-01T17:00:41.962Z,12.90
2022-10-01T17:03:17.656Z,12.87
2022-10-01T17:05:45.120Z,12.79
2022-10-01T17:08:12.069Z,12.74
2022-10-01T17:10:53.291Z,12.72
2022-10-01T17:13:19.894Z,12.68
2022-10-01T17:15:48.394Z,12.60
2022-10-01T17:18:14.971Z,12.51
2022-10-01T17:20:41.788Z,12.48
2022-10-01T17:23:10.386Z,12.45
2022-10-01T17:25:39.084Z,12.44
2022-10-01T17:28:08.558Z,12.43
2022-10-01T17:30:38.870Z,12.37
2022-10-01T17:33:05.450Z,12.34
2022-10-01T17:35:32.047Z,12.32
2022-10-01T17:37:58.892Z,12.32
2022-10-01T17:40:26.243Z,12.32
2022-10-01T17:42:52.975Z,12.32
2022-10-01T17:45:19.753Z,12.30
2022-10-01T17:47:48.181Z,12.29
2022-10-01T17:50:15.989Z,12.27
2022-10-01T17:52:42.943Z,12.28
2022-10-01T17:55:12.185Z,12.29
2022-10-01T17:57:38.841Z,12.26
2022-10-01T18:00:06.096Z,12.27
2022-10-01T18:02:43.167Z,12.24
2022-10-01T18:05:12.781Z,12.26
2022-10-01T18:07:39.450Z,12.23
2022-10-01T18:10:08.426Z,12.23
2022-10-01T18:12:35.336Z,12.21
2022-10-01T18:15:02.024Z,12.20
2022-10-01T18:17:29.233Z,12.16
2022-10-01T18:19:57.104Z,12.14
2022-10-01T18:22:24.129Z,12.16
2022-10-01T18:24:50.775Z,12.16
2022-10-01T18:27:17.781Z,12.12
2022-10-01T18:29:44.367Z,12.10
2022-10-01T18:32:17.062Z,12.12
2022-10-01T18:34:57.818Z,12.13
2022-10-01T18:37:46.681Z,12.13
2022-10-01T18:40:17.627Z,12.10
2022-10-01T18:43:03.102Z,12.07
2022-10-01T18:45:32.777Z,12.12
2022-10-01T18:48:17.406Z,12.16
2022-10-01T18:50:56.941Z,12.19
2022-10-01T18:53:36.343Z,12.19
2022-10-01T18:56:05.757Z,12.20
2022-10-01T18:58:41.150Z,12.21
2022-10-01T19:01:15.947Z,12.19
2022-10-01T19:03:45.392Z,12.19
2022-10-01T19:06:41.070Z,12.15
2022-10-01T19:09:26.145Z,12.11
2022-10-01T19:11:55.772Z,12.07
2022-10-01T19:14:34.499Z,12.06
2022-10-01T19:17:12.091Z,12.05
2022-10-01T19:19:53.571Z,12.07
2022-10-01T19:22:28.566Z,12.08
2022-10-01T19:25:13.671Z,12.06
2022-10-01T19:28:11.922Z,12.02
2022-10-01T19:31:02.621Z,11.93
2022-10-01T19:33:32.280Z,11.90
2022-10-01T19:36:00.466Z,11.88
2022-10-01T19:38:36.395Z,11.84
2022-10-01T19:41:13.178Z,11.80
2022-10-01T19:43:43.062Z,11.80
2022-10-01T19:46:16.347Z,11.81
2022-10-01T19:48:57.062Z,11.88
2022-10-01T19:51:31.328Z,11.94
2022-10-01T19:54:01.049Z,12.01
2022-10-01T19:56:34.635Z,12.04
2022-10-01T19:59:07.796Z,12.02
2022-10-01T20:01:39.128Z,12.02
2022-10-01T20:04:18.368Z,12.03
2022-10-01T20:06:47.030Z,12.04
2022-10-01T20:09:32.429Z,12.06
2022-10-01T20:12:25.694Z,12.10
2022-10-01T20:15:12.590Z,12.10
2022-10-01T20:17:47.970Z,12.08
2022-10-01T20:20:17.510Z,12.13
2022-10-01T20:23:02.362Z,12.12
2022-10-01T20:25:46.087Z,12.10
2022-10-01T20:28:31.312Z,12.08
2022-10-01T20:31:07.728Z,12.07
2022-10-01T20:33:43.307Z,12.05
2022-10-01T20:36:18.784Z,12.03
2022-10-01T20:39:04.227Z,12.00
2022-10-01T20:41:42.671Z,11.94
2022-10-01T20:44:14.026Z,11.86
2022-10-01T20:46:45.612Z,11.76
2022-10-01T20:49:29.932Z,11.69
2022-10-01T20:52:09.595Z,11.61
2022-10-01T20:54:41.417Z,11.54
2022-10-01T20:57:20.867Z,11.46
2022-10-01T20:59:57.120Z,11.38
2022-10-01T21:02:46.984Z,11.33
2022-10-01T21:05:34.124Z,11.27
2022-10-01T21:08:05.204Z,11.22
2022-10-01T21:11:22.657Z,11.14
2022-10-01T21:13:58.122Z,11.11
2022-10-01T21:16:25.492Z,11.07
2022-10-01T21:19:17.617Z,11.08
2022-10-01T21:22:05.033Z,11.03
2022-10-01T21:24:54.290Z,11.04
2022-10-01T21:27:52.651Z,11.07
2022-10-01T21:30:21.739Z,11.09
2022-10-01T21:32:51.382Z,11.12
2022-10-01T21:35:44.163Z,11.13
2022-10-01T21:38:28.641Z,11.12
2022-10-01T21:41:14.715Z,11.10
2022-10-01T21:44:10.897Z,11.21
2022-10-01T21:46:53.233Z,11.25
2022-10-01T21:49:47.248Z,11.35
2022-10-01T21:52:41.924Z,11.45
2022-10-01T21:55:42.005Z,11.54
2022-10-01T21:58:25.970Z,11.53
2022-10-01T22:01:11.965Z,11.56
2022-10-01T22:03:55.226Z,11.57
2022-10-01T22:06:38.626Z,11.57
2022-10-01T22:09:17.411Z,11.58
2022-10-01T22:11:51.422Z,11.59
2022-10-01T22:14:20.933Z,11.63
2022-10-01T22:16:55.102Z,11.66
2022-10-01T22:19:30.455Z,11.70
2022-10-01T22:22:04.702Z,11.71
2022-10-01T22:24:43.555Z,11.69
2022-10-01T22:27:21.901Z,11.72
2022-10-01T22:30:04.226Z,11.71
2022-10-01T22:32:38.776Z,11.68
2022-10-01T22:35:15.332Z,11.61
2022-10-01T22:38:05.434Z,11.54
2022-10-01T22:40:42.392Z,11.48
2022-10-01T22:43:12.082Z,11.43
2022-10-01T22:46:00.612Z,11.46
2022-10-01T22:48:30.271Z,11.42
2022-10-01T22:51:16.313Z,11.48
2022-10-01T22:54:09.303Z,11.50
2022-10-01T22:56:48.357Z,11.55
2022-10-01T22:59:24.110Z,11.57
2022-10-01T23:02:18.805Z,11.63
2022-10-01T23:05:11.008Z,11.66
2022-10-01T23:08:02.047Z,11.66
2022-10-01T23:10:28.570Z,11.65
2022-10-01T23:13:11.897Z,11.66
2022-10-01T23:15:59.971Z,11.67
2022-10-01T23:18:47.052Z,11.67
2022-10-01T23:21:34.699Z,11.70
2022-10-01T23:24:19.999Z,11.70
2022-10-01T23:27:05.976Z,11.76
2022-10-01T23:29:53.761Z,11.75
2022-10-01T23:32:43.021Z,11.77
2022-10-01T23:35:38.965Z,11.73
2022-10-01T23:38:17.636Z,11.72
2022-10-01T23:40:48.227Z,11.67
2022-10-01T23:43:27.854Z,11.66
2022-10-01T23:46:00.462Z,11.62
2022-10-01T23:48:42.424Z,11.60
2022-10-01T23:51:30.195Z,11.61
2022-10-01T23:54:14.799Z,11.65
2022-10-01T23:56:53.774Z,11.68
2022-10-01T23:59:44.762Z,11.70
